sensor_id;sensor_type;location;lat;lon;timestamp;pressure;altitude;pressure_sealevel;temperature;humidity
61500;BME280;47361;49.996;19.918;2023-05-02T00:06:57;98767.57;;;7.9;69
61500;BME280;47361;49.996;19.918;2023-05-02T00:07:57;98765.77;;;8.0;68
61500;BME280;47361;49.996;19.918;2023-05-02T00:11:57;98761.25;;;8.1;68
61500;BME280;47361;49.996;19.918;2023-05-02T00:12:57;98758.28;;;8.2;68
61500;BME280;47361;49.996;19.918;2023-05-02T00:17:57;98751.61;;;8.3;67
61500;BME280;47361;49.996;19.918;2023-05-02T00:19:57;98758.75;;;8.2;67
61500;BME280;47361;49.996;19.918;2023-05-02T00:20:57;98752.87;;;8.1;67
61500;BME280;47361;49.996;19.918;2023-05-02T00:23:57;98756.92;;;8.0;68
61500;BME280;47361;49.996;19.918;2023-05-02T00:24:57;98757.65;;;7.9;68
61500;BME280;47361;49.996;19.918;2023-05-02T00:25:57;98761.95;;;7.8;68
61500;BME280;47361;49.996;19.918;2023-05-02T00:26:57;98757.84;;;7.7;68
61500;BME280;47361;49.996;19.918;2023-05-02T00:30:57;98752.86;;;7.6;69
61500;BME280;47361;49.996;19.918;2023-05-02T00:31:57;98752.01;;;7.7;69
61500;BME280;47361;49.996;19.918;2023-05-02T00:44:57;98765.25;;;7.6;69
61500;BME280;47361;49.996;19.918;2023-05-02T00:49:57;98767.24;;;7.5;70
61500;BME280;47361;49.996;19.918;2023-05-02T00:50:57;98765.61;;;7.6;70
61500;BME280;47361;49.996;19.918;2023-05-02T00:52:57;98767.42;;;7.7;69
61500;BME280;47361;49.996;19.918;2023-05-02T00:56:57;98773.20999999999;;;7.8;69
61500;BME280;47361;49.996;19.918;2023-05-02T01:08:59;98767.33;;;7.7;69
61500;BME280;47361;49.996;19.918;2023-05-02T01:11:59;98772.88;;;7.8;69
61500;BME280;47361;49.996;19.918;2023-05-02T01:16:57;98772.74;;;7.9;69
61500;BME280;47361;49.996;19.918;2023-05-02T01:17:57;98775.45;;;8.0;69
61500;BME280;47361;49.996;19.918;2023-05-02T01:22:59;98769.89;;;8.1;68
61500;BME280;47361;49.996;19.918;2023-05-02T01:24:59;98768.42;;;8.0;68
61500;BME280;47361;49.996;19.918;2023-05-02T01:27:00;98767.1;;;7.9;68
61500;BME280;47361;49.996;19.918;2023-05-02T01:28:58;98768.26999999999;;;7.8;69
61500;BME280;47361;49.996;19.918;2023-05-02T01:30:57;98765.58;;;7.7;69
61500;BME280;47361;49.996;19.918;2023-05-02T01:31:57;98767.46;;;7.8;69
61500;BME280;47361;49.996;19.918;2023-05-02T01:36:57;98761.55;;;7.9;69
61500;BME280;47361;49.996;19.918;2023-05-02T01:39:58;98758.09000000001;;;7.8;68
61500;BME280;47361;49.996;19.918;2023-05-02T01:42:57;98755.31;;;7.9;69
61500;BME280;47361;49.996;19.918;2023-05-02T01:43:58;98756.06;;;7.8;69
61500;BME280;47361;49.996;19.918;2023-05-02T01:45:57;98754.66;;;7.7;68
61500;BME280;47361;49.996;19.918;2023-05-02T01:47:57;98758.58;;;7.6;69
61500;BME280;47361;49.996;19.918;2023-05-02T01:53:57;98757.3;;;7.5;69
61500;BME280;47361;49.996;19.918;2023-05-02T01:56:57;98758.83;;;7.6;69
61500;BME280;47361;49.996;19.918;2023-05-02T01:58:57;98762.28;;;7.5;69
61500;BME280;47361;49.996;19.918;2023-05-02T01:59:57;98758.87;;;7.6;70
61500;BME280;47361;49.996;19.918;2023-05-02T02:04:57;98767.40999999999;;;7.5;69
61500;BME280;47361;49.996;19.918;2023-05-02T02:05:57;98767.55;;;7.4;69
61500;BME280;47361;49.996;19.918;2023-05-02T02:10:58;98772.05;;;7.3;69
61500;BME280;47361;49.996;19.918;2023-05-02T02:13:59;98772.58;;;7.2;70
61500;BME280;47361;49.996;19.918;2023-05-02T02:16:57;98767.7;;;7.3;70
61500;BME280;47361;49.996;19.918;2023-05-02T02:27:57;98768.91;;;7.4;69
61500;BME280;47361;49.996;19.918;2023-05-02T02:29:57;98774.86;;;7.3;69
61500;BME280;47361;49.996;19.918;2023-05-02T02:31:57;98772.16;;;7.4;69
61500;BME280;47361;49.996;19.918;2023-05-02T02:36:59;98778.91;;;7.5;68
61500;BME280;47361;49.996;19.918;2023-05-02T02:39:59;98776.70000000001;;;7.4;69
61500;BME280;47361;49.996;19.918;2023-05-02T02:41:59;98779.98999999999;;;7.5;69
61500;BME280;47361;49.996;19.918;2023-05-02T02:42:59;98777.28;;;7.4;69
61500;BME280;47361;49.996;19.918;2023-05-02T02:48:01;98773.6;;;7.5;68
61500;BME280;47361;49.996;19.918;2023-05-02T02:49:00;98775.36;;;7.4;68
61500;BME280;47361;49.996;19.918;2023-05-02T02:50:01;98775.36;;;7.3;68
61500;BME280;47361;49.996;19.918;2023-05-02T02:50:58;98779.21;;;7.2;68
61500;BME280;47361;49.996;19.918;2023-05-02T02:52:58;98776.03;;;7.1;68
61500;BME280;47361;49.996;19.918;2023-05-02T02:54:58;98777.09;;;7.0;69
61500;BME280;47361;49.996;19.918;2023-05-02T02:55:58;98784.0;;;6.9;69
61500;BME280;47361;49.996;19.918;2023-05-02T02:59:58;98789.14;;;6.8;70
61500;BME280;47361;49.996;19.918;2023-05-02T03:06:59;98791.76999999999;;;6.9;70
61500;BME280;47361;49.996;19.918;2023-05-02T03:08:57;98792.69;;;7.0;70
61500;BME280;47361;49.996;19.918;2023-05-02T03:12:57;98790.68;;;6.9;70
61500;BME280;47361;49.996;19.918;2023-05-02T03:13:57;98795.93;;;6.8;70
61500;BME280;47361;49.996;19.918;2023-05-02T03:14:59;98797.88;;;6.7;70
61500;BME280;47361;49.996;19.918;2023-05-02T03:17:57;98806.74;;;6.5;71
61500;BME280;47361;49.996;19.918;2023-05-02T03:18:57;98805.38;;;6.4;72
61500;BME280;47361;49.996;19.918;2023-05-02T03:20:57;98809.59;;;6.5;72
61500;BME280;47361;49.996;19.918;2023-05-02T03:21:57;98809.83;;;6.6;71
61500;BME280;47361;49.996;19.918;2023-05-02T03:22:57;98807.22;;;6.5;71
61500;BME280;47361;49.996;19.918;2023-05-02T03:36:57;98805.19;;;6.6;71
61500;BME280;47361;49.996;19.918;2023-05-02T03:40:57;98806.75;;;6.7;71
61500;BME280;47361;49.996;19.918;2023-05-02T03:46:57;98806.22;;;6.8;71
61500;BME280;47361;49.996;19.918;2023-05-02T03:51:57;98805.82;;;6.9;71
61500;BME280;47361;49.996;19.918;2023-05-02T03:52:57;98814.67;;;6.8;71
61500;BME280;47361;49.996;19.918;2023-05-02T03:54:57;98808.84;;;6.7;72
61500;BME280;47361;49.996;19.918;2023-05-02T03:56:57;98813.4;;;6.8;72
61500;BME280;47361;49.996;19.918;2023-05-02T04:01:57;98803.95999999999;;;6.9;72
61500;BME280;47361;49.996;19.918;2023-05-02T04:03:57;98802.31;;;7.0;72
61500;BME280;47361;49.996;19.918;2023-05-02T04:05:57;98802.0;;;7.1;72
61500;BME280;47361;49.996;19.918;2023-05-02T04:06:57;98800.37999999999;;;7.2;72
61500;BME280;47361;49.996;19.918;2023-05-02T04:08:57;98799.34;;;7.3;72
61500;BME280;47361;49.996;19.918;2023-05-02T04:11:57;98799.25;;;7.4;72
61500;BME280;47361;49.996;19.918;2023-05-02T04:15:57;98798.54000000001;;;7.5;72
61500;BME280;47361;49.996;19.918;2023-05-02T04:16:57;98799.94;;;7.6;71
61500;BME280;47361;49.996;19.918;2023-05-02T04:20:57;98799.82;;;7.7;72
61500;BME280;47361;49.996;19.918;2023-05-02T04:21:57;98800.40000000001;;;7.8;71
61500;BME280;47361;49.996;19.918;2023-05-02T04:26:57;98795.84;;;7.9;71
61500;BME280;47361;49.996;19.918;2023-05-02T04:31:57;98788.55;;;8.0;71
61500;BME280;47361;49.996;19.918;2023-05-02T04:33:57;98792.25;;;8.1;72
61500;BME280;47361;49.996;19.918;2023-05-02T04:35:57;98792.24;;;8.2;72
61500;BME280;47361;49.996;19.918;2023-05-02T04:36:58;98788.68;;;8.3;71
61500;BME280;47361;49.996;19.918;2023-05-02T04:38:57;98789.56;;;8.4;72
61500;BME280;47361;49.996;19.918;2023-05-02T04:40:57;98793.53;;;8.5;71
61500;BME280;47361;49.996;19.918;2023-05-02T04:41:57;98793.09;;;8.6;71
61500;BME280;47361;49.996;19.918;2023-05-02T04:43:57;98795.46;;;8.7;71
61500;BME280;47361;49.996;19.918;2023-05-02T04:46:57;98795.19;;;8.8;70
61500;BME280;47361;49.996;19.918;2023-05-02T04:47:57;98790.99;;;8.9;70
61500;BME280;47361;49.996;19.918;2023-05-02T04:50:57;98790.19;;;9.0;70
61500;BME280;47361;49.996;19.918;2023-05-02T04:51:57;98787.36;;;9.1;70
61500;BME280;47361;49.996;19.918;2023-05-02T04:53:57;98780.19;;;9.2;70
61500;BME280;47361;49.996;19.918;2023-05-02T04:55:57;98783.48;;;9.3;69
61500;BME280;47361;49.996;19.918;2023-05-02T04:56:57;98786.01999999999;;;9.4;69
61500;BME280;47361;49.996;19.918;2023-05-02T04:58:57;98783.84999999999;;;9.5;69
61500;BME280;47361;49.996;19.918;2023-05-02T04:59:57;98783.31;;;9.6;69
61500;BME280;47361;49.996;19.918;2023-05-02T05:01:58;98787.42;;;9.8;66
61500;BME280;47361;49.996;19.918;2023-05-02T05:03:57;98787.99;;;9.9;65
61500;BME280;47361;49.996;19.918;2023-05-02T05:05:57;98794.7;;;10.0;64
61500;BME280;47361;49.996;19.918;2023-05-02T05:06:57;98793.97;;;10.1;64
61500;BME280;47361;49.996;19.918;2023-05-02T05:09:57;98797.41;;;10.2;63
61500;BME280;47361;49.996;19.918;2023-05-02T05:10:57;98798.75;;;10.3;63
61500;BME280;47361;49.996;19.918;2023-05-02T05:11:57;98794.14;;;10.4;63
61500;BME280;47361;49.996;19.918;2023-05-02T05:13:57;98793.01000000001;;;10.5;62
61500;BME280;47361;49.996;19.918;2023-05-02T05:14:57;98795.28;;;10.6;61
61500;BME280;47361;49.996;19.918;2023-05-02T05:15:57;98798.83;;;10.7;61
61500;BME280;47361;49.996;19.918;2023-05-02T05:16:57;98796.88;;;10.8;61
61500;BME280;47361;49.996;19.918;2023-05-02T05:18:57;98793.22;;;10.9;61
61500;BME280;47361;49.996;19.918;2023-05-02T05:20:57;98791.92;;;11.1;60
61500;BME280;47361;49.996;19.918;2023-05-02T05:21:57;98791.13;;;11.2;60
61500;BME280;47361;49.996;19.918;2023-05-02T05:23:57;98787.56;;;11.3;59
61500;BME280;47361;49.996;19.918;2023-05-02T05:25:58;98785.39;;;11.4;58
61500;BME280;47361;49.996;19.918;2023-05-02T05:26:57;98789.15;;;11.5;58
61500;BME280;47361;49.996;19.918;2023-05-02T05:27:58;98785.08;;;11.6;57
61500;BME280;47361;49.996;19.918;2023-05-02T05:28:57;98782.56;;;11.7;56
61500;BME280;47361;49.996;19.918;2023-05-02T05:30:57;98782.25;;;11.8;55
61500;BME280;47361;49.996;19.918;2023-05-02T05:31:57;98783.74;;;11.9;55
61500;BME280;47361;49.996;19.918;2023-05-02T05:32:57;98779.67;;;12.0;55
61500;BME280;47361;49.996;19.918;2023-05-02T05:33:57;98779.54999999999;;;12.1;56
61500;BME280;47361;49.996;19.918;2023-05-02T05:36:02;98777.15;;;12.2;55
61500;BME280;47361;49.996;19.918;2023-05-02T05:36:57;98779.04999999999;;;12.3;54
61500;BME280;47361;49.996;19.918;2023-05-02T05:38:57;98776.4;;;12.4;54
61500;BME280;47361;49.996;19.918;2023-05-02T05:40:57;98775.08;;;12.5;53
61500;BME280;47361;49.996;19.918;2023-05-02T05:41:57;98780.56;;;12.6;53
61500;BME280;47361;49.996;19.918;2023-05-02T05:42:57;98780.38;;;12.7;52
61500;BME280;47361;49.996;19.918;2023-05-02T05:43:57;98779.28;;;12.8;53
61500;BME280;47361;49.996;19.918;2023-05-02T05:45:57;98781.19;;;12.9;52
61500;BME280;47361;49.996;19.918;2023-05-02T05:46:57;98779.02;;;13.0;52
61500;BME280;47361;49.996;19.918;2023-05-02T05:47:57;98780.28;;;13.1;52
61500;BME280;47361;49.996;19.918;2023-05-02T05:49:57;98779.13;;;13.2;52
61500;BME280;47361;49.996;19.918;2023-05-02T05:50:57;98785.33;;;13.3;51
61500;BME280;47361;49.996;19.918;2023-05-02T05:51:57;98778.4;;;13.4;51
61500;BME280;47361;49.996;19.918;2023-05-02T05:53:57;98783.94;;;13.5;51
61500;BME280;47361;49.996;19.918;2023-05-02T05:55:57;98788.28;;;13.6;51
61500;BME280;47361;49.996;19.918;2023-05-02T05:56:57;98789.92;;;13.7;51
61500;BME280;47361;49.996;19.918;2023-05-02T05:57:57;98790.22;;;13.8;51
61500;BME280;47361;49.996;19.918;2023-05-02T05:59:57;98789.48000000001;;;13.9;50
61500;BME280;47361;49.996;19.918;2023-05-02T06:00:57;98788.51;;;14.0;50
61500;BME280;47361;49.996;19.918;2023-05-02T06:01:57;98791.06;;;14.1;50
61500;BME280;47361;49.996;19.918;2023-05-02T06:02:57;98789.76;;;14.2;50
61500;BME280;47361;49.996;19.918;2023-05-02T06:04:57;98787.61;;;14.3;49
61500;BME280;47361;49.996;19.918;2023-05-02T06:05:57;98791.28;;;14.4;49
61500;BME280;47361;49.996;19.918;2023-05-02T06:06:57;98788.17;;;14.5;48
61500;BME280;47361;49.996;19.918;2023-05-02T06:07:58;98791.69;;;14.6;49
61500;BME280;47361;49.996;19.918;2023-05-02T06:08:57;98791.09;;;14.7;49
61500;BME280;47361;49.996;19.918;2023-05-02T06:10:57;98792.08;;;14.9;48
61500;BME280;47361;49.996;19.918;2023-05-02T06:12:57;98794.97;;;15.0;46
61500;BME280;47361;49.996;19.918;2023-05-02T06:14:57;98794.64;;;15.1;46
61500;BME280;47361;49.996;19.918;2023-05-02T06:16:57;98796.17;;;15.2;47
61500;BME280;47361;49.996;19.918;2023-05-02T06:18:57;98798.20999999999;;;15.3;46
61500;BME280;47361;49.996;19.918;2023-05-02T06:21:02;98793.36;;;15.4;46
61500;BME280;47361;49.996;19.918;2023-05-02T06:22:58;98791.33;;;15.5;46
61500;BME280;47361;49.996;19.918;2023-05-02T06:25:58;98787.67;;;15.6;44
61500;BME280;47361;49.996;19.918;2023-05-02T06:26:57;98792.62999999999;;;15.7;45
61500;BME280;47361;49.996;19.918;2023-05-02T06:29:57;98792.93000000001;;;15.8;45
61500;BME280;47361;49.996;19.918;2023-05-02T06:30:58;98792.69;;;15.9;44
61500;BME280;47361;49.996;19.918;2023-05-02T06:33:57;98789.70000000001;;;16.0;44
61500;BME280;47361;49.996;19.918;2023-05-02T06:35:58;98788.3;;;16.2;43
61500;BME280;47361;49.996;19.918;2023-05-02T06:37:57;98791.42;;;16.3;43
61500;BME280;47361;49.996;19.918;2023-05-02T06:39:57;98791.69;;;16.4;44
61500;BME280;47361;49.996;19.918;2023-05-02T06:40:57;98797.61;;;16.5;44
61500;BME280;47361;49.996;19.918;2023-05-02T06:41:58;98796.2;;;16.6;43
61500;BME280;47361;49.996;19.918;2023-05-02T06:42:57;98798.53;;;16.7;43
61500;BME280;47361;49.996;19.918;2023-05-02T06:44:57;98799.71;;;16.8;44
61500;BME280;47361;49.996;19.918;2023-05-02T06:45:57;98802.72;;;16.9;43
61500;BME280;47361;49.996;19.918;2023-05-02T06:50:57;98806.33;;;17.0;44
61500;BME280;47361;49.996;19.918;2023-05-02T06:59:57;98810.38;;;16.9;42
61500;BME280;47361;49.996;19.918;2023-05-02T07:00:57;98811.53;;;17.0;42
61500;BME280;47361;49.996;19.918;2023-05-02T07:02:57;98815.59;;;16.9;43
61500;BME280;47361;49.996;19.918;2023-05-02T07:09:57;98820.26;;;17.0;43
61500;BME280;47361;49.996;19.918;2023-05-02T07:11:59;98812.25;;;17.1;42
61500;BME280;47361;49.996;19.918;2023-05-02T07:14:57;98814.09;;;17.2;43
61500;BME280;47361;49.996;19.918;2023-05-02T07:15:57;98815.03;;;17.3;42
61500;BME280;47361;49.996;19.918;2023-05-02T07:20:57;98812.25;;;17.4;41
61500;BME280;47361;49.996;19.918;2023-05-02T07:21:57;98815.95;;;17.3;41
61500;BME280;47361;49.996;19.918;2023-05-02T07:27:58;98822.56;;;17.2;41
61500;BME280;47361;49.996;19.918;2023-05-02T07:34:57;98826.78;;;17.1;41
61500;BME280;47361;49.996;19.918;2023-05-02T07:39:57;98833.48;;;17.0;42
61500;BME280;47361;49.996;19.918;2023-05-02T07:40:58;98836.55;;;17.1;41
61500;BME280;47361;49.996;19.918;2023-05-02T07:41:57;98837.77;;;17.0;41
61500;BME280;47361;49.996;19.918;2023-05-02T07:44:58;98831.47;;;16.9;42
61500;BME280;47361;49.996;19.918;2023-05-02T07:45:57;98835.11;;;17.0;42
61500;BME280;47361;49.996;19.918;2023-05-02T07:46:57;98831.78;;;16.9;42
61500;BME280;47361;49.996;19.918;2023-05-02T07:48:57;98832.53;;;16.8;42
61500;BME280;47361;49.996;19.918;2023-05-02T07:52:58;98834.0;;;16.7;43
61500;BME280;47361;49.996;19.918;2023-05-02T08:00:57;98839.79000000001;;;16.8;44
61500;BME280;47361;49.996;19.918;2023-05-02T08:12:58;98859.88;;;16.9;45
61500;BME280;47361;49.996;19.918;2023-05-02T08:13:57;98857.04;;;16.8;44
61500;BME280;47361;49.996;19.918;2023-05-02T08:15:57;98855.16;;;16.9;45
61500;BME280;47361;49.996;19.918;2023-05-02T08:20:57;98847.64;;;17.0;45
61500;BME280;47361;49.996;19.918;2023-05-02T08:21:57;98848.64;;;17.1;45
61500;BME280;47361;49.996;19.918;2023-05-02T08:24:58;98841.02;;;17.2;45
61500;BME280;47361;49.996;19.918;2023-05-02T08:25:57;98849.13;;;17.3;46
61500;BME280;47361;49.996;19.918;2023-05-02T08:26:57;98848.27;;;17.4;45
61500;BME280;47361;49.996;19.918;2023-05-02T08:28:58;98844.34999999999;;;17.5;45
61500;BME280;47361;49.996;19.918;2023-05-02T08:30:57;98843.59;;;17.7;46
61500;BME280;47361;49.996;19.918;2023-05-02T08:31:57;98845.79;;;17.8;47
61500;BME280;47361;49.996;19.918;2023-05-02T08:32:57;98843.44;;;17.9;46
61500;BME280;47361;49.996;19.918;2023-05-02T08:33:57;98846.03;;;18.0;46
61500;BME280;47361;49.996;19.918;2023-05-02T08:34:57;98852.48;;;18.2;46
61500;BME280;47361;49.996;19.918;2023-05-02T08:35:58;98852.75;;;18.3;45
61500;BME280;47361;49.996;19.918;2023-05-02T08:36:57;98854.90999999999;;;18.4;45
61500;BME280;47361;49.996;19.918;2023-05-02T08:40:57;98860.94;;;18.5;45
61500;BME280;47361;49.996;19.918;2023-05-02T08:41:57;98863.2;;;18.4;45
61500;BME280;47361;49.996;19.918;2023-05-02T08:43:57;98861.17;;;18.3;45
61500;BME280;47361;49.996;19.918;2023-05-02T08:52:58;98857.26;;;18.4;45
61500;BME280;47361;49.996;19.918;2023-05-02T08:55:57;98857.45;;;18.5;45
61500;BME280;47361;49.996;19.918;2023-05-02T08:57:57;98856.61;;;18.6;45
61500;BME280;47361;49.996;19.918;2023-05-02T08:59:58;98854.45999999999;;;18.7;45
61500;BME280;47361;49.996;19.918;2023-05-02T09:06:02;98855.19;;;18.8;44
61500;BME280;47361;49.996;19.918;2023-05-02T09:06:57;98850.61;;;18.7;43
61500;BME280;47361;49.996;19.918;2023-05-02T09:08:58;98855.45;;;18.6;45
61500;BME280;47361;49.996;19.918;2023-05-02T09:15:07;98861.79;;;18.5;44
61500;BME280;47361;49.996;19.918;2023-05-02T09:15:58;98857.03;;;18.6;44
61500;BME280;47361;49.996;19.918;2023-05-02T09:20:58;98861.95;;;18.7;44
61500;BME280;47361;49.996;19.918;2023-05-02T09:22:57;98861.51999999999;;;18.6;45
61500;BME280;47361;49.996;19.918;2023-05-02T09:26:58;98863.61;;;18.5;44
61500;BME280;47361;49.996;19.918;2023-05-02T09:27:57;98867.69;;;18.4;44
61500;BME280;47361;49.996;19.918;2023-05-02T09:31:04;98866.41;;;18.4;45
61500;BME280;47361;49.996;19.918;2023-05-02T09:31:58;98868.95;;;18.3;45
61500;BME280;47361;49.996;19.918;2023-05-02T09:32:57;98868.94;;;18.2;45
61500;BME280;47361;49.996;19.918;2023-05-02T09:36:57;98870.45000000001;;;18.1;46
61500;BME280;47361;49.996;19.918;2023-05-02T09:40:05;98869.86;;;18.0;46
61500;BME280;47361;49.996;19.918;2023-05-02T09:40:58;98868.16;;;18.1;46
61500;BME280;47361;49.996;19.918;2023-05-02T09:45:59;98868.65000000001;;;18.2;46
61500;BME280;47361;49.996;19.918;2023-05-02T09:48:57;98868.55;;;18.3;47
61500;BME280;47361;49.996;19.918;2023-05-02T09:49:57;98867.61;;;18.4;47
61500;BME280;47361;49.996;19.918;2023-05-02T09:50:58;98868.42;;;18.5;47
61500;BME280;47361;49.996;19.918;2023-05-02T09:52:08;98863.69;;;18.6;47
61500;BME280;47361;49.996;19.918;2023-05-02T09:53:01;98863.56;;;18.8;48
61500;BME280;47361;49.996;19.918;2023-05-02T09:53:57;98864.37;;;19.0;47
61500;BME280;47361;49.996;19.918;2023-05-02T09:54:57;98864.43000000001;;;19.2;46
61500;BME280;47361;49.996;19.918;2023-05-02T09:55:58;98862.8;;;19.5;46
61500;BME280;47361;49.996;19.918;2023-05-02T09:56:58;98852.87;;;19.6;44
61500;BME280;47361;49.996;19.918;2023-05-02T09:57:58;98855.66;;;19.8;44
61500;BME280;47361;49.996;19.918;2023-05-02T09:59:57;98849.64;;;20.1;45
61500;BME280;47361;49.996;19.918;2023-05-02T10:00:57;98852.01;;;20.3;43
61500;BME280;47361;49.996;19.918;2023-05-02T10:01:58;98851.84000000001;;;20.4;42
61500;BME280;47361;49.996;19.918;2023-05-02T10:03:58;98848.38;;;20.5;42
61500;BME280;47361;49.996;19.918;2023-05-02T10:05:57;98843.84;;;20.7;42
61500;BME280;47361;49.996;19.918;2023-05-02T10:08:58;98846.45000000001;;;20.8;40
61500;BME280;47361;49.996;19.918;2023-05-02T10:10:58;98846.7;;;20.9;40
61500;BME280;47361;49.996;19.918;2023-05-02T10:14:59;98842.69;;;21.0;41
61500;BME280;47361;49.996;19.918;2023-05-02T10:15:58;98836.97;;;21.2;40
61500;BME280;47361;49.996;19.918;2023-05-02T10:19:00;98837.53;;;21.3;39
61500;BME280;47361;49.996;19.918;2023-05-02T10:20:58;98842.83;;;21.4;39
61500;BME280;47361;49.996;19.918;2023-05-02T10:22:58;98841.78;;;21.5;41
61500;BME280;47361;49.996;19.918;2023-05-02T10:28:57;98837.51;;;21.6;39
61500;BME280;47361;49.996;19.918;2023-05-02T10:35:01;98831.78;;;21.7;40
61500;BME280;47361;49.996;19.918;2023-05-02T10:35:58;98833.18000000001;;;21.8;39
61500;BME280;47361;49.996;19.918;2023-05-02T10:38:58;98831.62999999999;;;21.7;38
61500;BME280;47361;49.996;19.918;2023-05-02T10:39:58;98832.0;;;21.6;37
61500;BME280;47361;49.996;19.918;2023-05-02T10:40:59;98834.92;;;21.7;38
61500;BME280;47361;49.996;19.918;2023-05-02T10:41:58;98832.42;;;21.6;37
61500;BME280;47361;49.996;19.918;2023-05-02T10:42:58;98836.33;;;21.5;38
61500;BME280;47361;49.996;19.918;2023-05-02T10:46:58;98826.42;;;21.4;37
61500;BME280;47361;49.996;19.918;2023-05-02T10:50:41;98831.89;;;21.5;37
61500;BME280;47361;49.996;19.918;2023-05-02T10:51:31;98827.81999999999;;;21.4;37
61500;BME280;47361;49.996;19.918;2023-05-02T10:52:31;98829.31999999999;;;21.5;38
61500;BME280;47361;49.996;19.918;2023-05-02T10:53:31;98825.2;;;21.4;37
61500;BME280;47361;49.996;19.918;2023-05-02T10:55:30;98823.51999999999;;;21.5;37
61500;BME280;47361;49.996;19.918;2023-05-02T10:56:30;98822.06;;;21.4;37
61500;BME280;47361;49.996;19.918;2023-05-02T10:57:30;98823.96;;;21.3;37
61500;BME280;47361;49.996;19.918;2023-05-02T10:59:32;98831.37000000001;;;21.2;37
61500;BME280;47361;49.996;19.918;2023-05-02T11:01:31;98822.88;;;21.1;37
61500;BME280;47361;49.996;19.918;2023-05-02T11:15:04;98817.72;;;21.1;40
61500;BME280;47361;49.996;19.918;2023-05-02T11:16:04;98815.55;;;21.2;39
61500;BME280;47361;49.996;19.918;2023-05-02T11:17:04;98813.89;;;21.3;40
61500;BME280;47361;49.996;19.918;2023-05-02T11:18:04;98815.37;;;21.5;40
61500;BME280;47361;49.996;19.918;2023-05-02T11:19:04;98813.51;;;21.6;40
61500;BME280;47361;49.996;19.918;2023-05-02T11:26:06;98814.69;;;22.1;36
61500;BME280;47361;49.996;19.918;2023-05-02T11:28:05;98811.23999999999;;;22.2;36
61500;BME280;47361;49.996;19.918;2023-05-02T11:29:04;98811.15999999999;;;22.1;37
61500;BME280;47361;49.996;19.918;2023-05-02T11:30:04;98813.45;;;22.2;37
61500;BME280;47361;49.996;19.918;2023-05-02T11:31:04;98819.62;;;22.3;36
61500;BME280;47361;49.996;19.918;2023-05-02T11:32:04;98818.44;;;22.2;35
61500;BME280;47361;49.996;19.918;2023-05-02T11:34:04;98821.33;;;22.1;36
61500;BME280;47361;49.996;19.918;2023-05-02T11:35:04;98824.53;;;22.0;36
61500;BME280;47361;49.996;19.918;2023-05-02T11:37:09;98822.33;;;21.9;36
61500;BME280;47361;49.996;19.918;2023-05-02T11:41:04;98826.53;;;21.8;38
61500;BME280;47361;49.996;19.918;2023-05-02T11:43:11;98826.03;;;21.6;38
61500;BME280;47361;49.996;19.918;2023-05-02T11:44:04;98825.09;;;21.5;37
61500;BME280;47361;49.996;19.918;2023-05-02T11:46:05;98822.83;;;21.4;38
61500;BME280;47361;49.996;19.918;2023-05-02T11:49:04;98824.59;;;21.3;39
61500;BME280;47361;49.996;19.918;2023-05-02T11:55:04;98814.81;;;21.4;39
61500;BME280;47361;49.996;19.918;2023-05-02T11:58:04;98817.98999999999;;;21.5;39
61500;BME280;47361;49.996;19.918;2023-05-02T12:00:04;98817.86;;;21.7;39
61500;BME280;47361;49.996;19.918;2023-05-02T12:01:11;98815.83;;;21.9;39
61500;BME280;47361;49.996;19.918;2023-05-02T12:03:04;98813.67;;;22.0;38
61500;BME280;47361;49.996;19.918;2023-05-02T12:08:04;98815.95;;;21.9;38
61500;BME280;47361;49.996;19.918;2023-05-02T12:11:04;98813.92;;;21.8;36
61500;BME280;47361;49.996;19.918;2023-05-02T12:13:04;98816.16;;;21.6;36
61500;BME280;47361;49.996;19.918;2023-05-02T12:14:04;98815.01;;;21.5;37
61500;BME280;47361;49.996;19.918;2023-05-02T12:17:04;98823.95;;;21.4;38
61500;BME280;47361;49.996;19.918;2023-05-02T12:18:04;98822.54000000001;;;21.3;37
61500;BME280;47361;49.996;19.918;2023-05-02T12:19:04;98824.17;;;21.2;37
61500;BME280;47361;49.996;19.918;2023-05-02T12:21:04;98835.40000000001;;;21.1;39
61500;BME280;47361;49.996;19.918;2023-05-02T12:22:04;98840.23;;;21.0;43
61500;BME280;47361;49.996;19.918;2023-05-02T12:23:04;98844.19;;;20.8;44
61500;BME280;47361;49.996;19.918;2023-05-02T12:24:04;98850.0;;;20.6;45
61500;BME280;47361;49.996;19.918;2023-05-02T12:25:04;98851.93000000001;;;20.5;45
61500;BME280;47361;49.996;19.918;2023-05-02T12:27:07;98855.3;;;20.1;46
61500;BME280;47361;49.996;19.918;2023-05-02T12:28:04;98854.69;;;20.0;48
61500;BME280;47361;49.996;19.918;2023-05-02T12:29:04;98859.0;;;19.9;48
61500;BME280;47361;49.996;19.918;2023-05-02T12:31:09;98860.14;;;19.8;50
61500;BME280;47361;49.996;19.918;2023-05-02T12:32:04;98862.87;;;19.7;51
61500;BME280;47361;49.996;19.918;2023-05-02T12:33:04;98866.3;;;19.6;52
61500;BME280;47361;49.996;19.918;2023-05-02T12:35:04;98869.64;;;19.5;52
61500;BME280;47361;49.996;19.918;2023-05-02T12:37:04;98869.84;;;19.4;51
61500;BME280;47361;49.996;19.918;2023-05-02T12:39:04;98868.72;;;19.3;54
61500;BME280;47361;49.996;19.918;2023-05-02T12:40:13;98871.34;;;19.4;54
61500;BME280;47361;49.996;19.918;2023-05-02T12:41:04;98876.15;;;19.3;56
61500;BME280;47361;49.996;19.918;2023-05-02T12:43:04;98881.08;;;19.2;57
61500;BME280;47361;49.996;19.918;2023-05-02T12:45:04;98885.82;;;19.3;59
61500;BME280;47361;49.996;19.918;2023-05-02T12:46:11;98887.22;;;19.2;59
61500;BME280;47361;49.996;19.918;2023-05-02T12:50:04;98892.68;;;19.0;57
61500;BME280;47361;49.996;19.918;2023-05-02T12:52:04;98893.69;;;18.9;55
61500;BME280;47361;49.996;19.918;2023-05-02T12:54:04;98890.19;;;18.8;54
61500;BME280;47361;49.996;19.918;2023-05-02T12:56:04;98889.92;;;18.7;55
61500;BME280;47361;49.996;19.918;2023-05-02T12:58:04;98883.48;;;18.6;55
61500;BME280;47361;49.996;19.918;2023-05-02T12:59:04;98886.7;;;18.5;55